sensor_id;sensor_type;location;lat;lon;timestamp;pressure;altitude;pressure_sealevel;temperature;humidity
2549;BME280;1284;53.520;10.248;2023-06-24T00:02:06;101600.97;;;20.48;85.60
2549;BME280;1284;53.520;10.248;2023-06-24T00:04:31;101592.84;;;20.31;85.90
2549;BME280;1284;53.520;10.248;2023-06-24T00:06:57;101587.00;;;20.25;86.50
2549;BME280;1284;53.520;10.248;2023-06-24T00:09:28;101588.94;;;20.32;86.39
2549;BME280;1284;53.520;10.248;2023-06-24T00:11:57;101599.88;;;20.32;86.35
2549;BME280;1284;53.520;10.248;2023-06-24T00:14:26;101590.91;;;20.28;86.30
2549;BME280;1284;53.520;10.248;2023-06-24T00:16:53;101591.69;;;20.21;86.80
2549;BME280;1284;53.520;10.248;2023-06-24T00:19:24;101591.69;;;20.25;86.36
2549;BME280;1284;53.520;10.248;2023-06-24T00:21:50;101593.66;;;20.24;86.35
2549;BME280;1284;53.520;10.248;2023-06-24T00:24:17;101592.09;;;20.16;86.60
2549;BME280;1284;53.520;10.248;2023-06-24T00:29:31;101591.31;;;20.16;86.69
2549;BME280;1284;53.520;10.248;2023-06-24T00:31:56;101597.19;;;20.14;86.63
2549;BME280;1284;53.520;10.248;2023-06-24T00:34:22;101603.03;;;20.09;86.62
2549;BME280;1284;53.520;10.248;2023-06-24T00:36:50;101605.44;;;19.97;87.44
2549;BME280;1284;53.520;10.248;2023-06-24T00:39:16;101608.56;;;19.95;87.86
2549;BME280;1284;53.520;10.248;2023-06-24T00:41:42;101608.97;;;19.97;87.61
2549;BME280;1284;53.520;10.248;2023-06-24T00:44:08;101608.19;;;19.97;87.40
2549;BME280;1284;53.520;10.248;2023-06-24T00:46:34;101618.75;;;19.91;87.51
2549;BME280;1284;53.520;10.248;2023-06-24T00:49:00;101610.16;;;19.89;87.58
2549;BME280;1284;53.520;10.248;2023-06-24T00:51:28;101609.75;;;19.91;87.46
2549;BME280;1284;53.520;10.248;2023-06-24T00:53:58;101613.69;;;19.90;87.08
2549;BME280;1284;53.520;10.248;2023-06-24T00:56:27;101614.84;;;19.85;87.58
2549;BME280;1284;53.520;10.248;2023-06-24T00:58:57;101614.09;;;19.74;87.95
2549;BME280;1284;53.520;10.248;2023-06-24T01:01:24;101617.97;;;19.73;87.54
2549;BME280;1284;53.520;10.248;2023-06-24T01:03:51;101621.13;;;19.71;88.13
2549;BME280;1284;53.520;10.248;2023-06-24T01:06:18;101607.47;;;19.64;88.20
2549;BME280;1284;53.520;10.248;2023-06-24T01:08:44;101615.66;;;19.57;88.40
2549;BME280;1284;53.520;10.248;2023-06-24T01:11:16;101607.47;;;19.57;88.29
2549;BME280;1284;53.520;10.248;2023-06-24T01:13:42;101621.50;;;19.59;88.08
2549;BME280;1284;53.520;10.248;2023-06-24T01:16:14;101623.06;;;19.53;87.93
2549;BME280;1284;53.520;10.248;2023-06-24T01:18:48;101619.56;;;19.42;88.07
2549;BME280;1284;53.520;10.248;2023-06-24T01:21:42;101628.97;;;19.41;88.67
2549;BME280;1284;53.520;10.248;2023-06-24T01:24:31;101626.19;;;19.38;88.21
2549;BME280;1284;53.520;10.248;2023-06-24T01:27:10;101633.25;;;19.35;88.31
2549;BME280;1284;53.520;10.248;2023-06-24T01:29:52;101628.56;;;19.32;88.96
2549;BME280;1284;53.520;10.248;2023-06-24T01:32:34;101634.81;;;19.33;88.79
2549;BME280;1284;53.520;10.248;2023-06-24T01:35:07;101618.38;;;19.29;88.95
2549;BME280;1284;53.520;10.248;2023-06-24T01:37:39;101630.13;;;19.33;88.90
2549;BME280;1284;53.520;10.248;2023-06-24T01:40:11;101623.84;;;19.29;89.10
2549;BME280;1284;53.520;10.248;2023-06-24T01:42:39;101633.59;;;19.30;88.95
2549;BME280;1284;53.520;10.248;2023-06-24T01:45:13;101634.78;;;19.29;89.09
2549;BME280;1284;53.520;10.248;2023-06-24T01:47:41;101635.94;;;19.21;89.28
2549;BME280;1284;53.520;10.248;2023-06-24T01:50:10;101641.00;;;19.19;89.08
2549;BME280;1284;53.520;10.248;2023-06-24T01:52:37;101636.31;;;19.06;89.45
2549;BME280;1284;53.520;10.248;2023-06-24T01:55:08;101645.69;;;19.05;89.87
2549;BME280;1284;53.520;10.248;2023-06-24T01:57:36;101644.09;;;18.97;90.01
2549;BME280;1284;53.520;10.248;2023-06-24T02:00:03;101649.16;;;18.98;89.75
2549;BME280;1284;53.520;10.248;2023-06-24T02:02:47;101649.56;;;18.97;89.91
2549;BME280;1284;53.520;10.248;2023-06-24T02:05:17;101644.09;;;18.97;89.61
2549;BME280;1284;53.520;10.248;2023-06-24T02:07:44;101639.34;;;18.79;90.05
2549;BME280;1284;53.520;10.248;2023-06-24T02:10:13;101645.25;;;18.85;90.27
2549;BME280;1284;53.520;10.248;2023-06-24T02:12:40;101641.72;;;18.88;89.33
2549;BME280;1284;53.520;10.248;2023-06-24T02:15:07;101638.19;;;18.73;89.99
2549;BME280;1284;53.520;10.248;2023-06-24T02:17:33;101638.94;;;18.70;90.31
2549;BME280;1284;53.520;10.248;2023-06-24T02:20:00;101640.47;;;18.61;89.74
2549;BME280;1284;53.520;10.248;2023-06-24T02:22:27;101646.72;;;18.65;90.15
2549;BME280;1284;53.520;10.248;2023-06-24T02:24:54;101651.03;;;18.69;89.76
2549;BME280;1284;53.520;10.248;2023-06-24T02:27:20;101648.31;;;18.69;89.71
2549;BME280;1284;53.520;10.248;2023-06-24T02:29:47;101656.50;;;18.66;89.46
2549;BME280;1284;53.520;10.248;2023-06-24T02:32:13;101655.72;;;18.69;89.59
2549;BME280;1284;53.520;10.248;2023-06-24T02:34:39;101660.00;;;18.66;89.65
2549;BME280;1284;53.520;10.248;2023-06-24T02:37:05;101661.19;;;18.69;89.56
2549;BME280;1284;53.520;10.248;2023-06-24T02:39:32;101657.66;;;18.65;89.72
2549;BME280;1284;53.520;10.248;2023-06-24T02:41:57;101662.28;;;18.54;89.41
2549;BME280;1284;53.520;10.248;2023-06-24T02:44:23;101673.50;;;18.42;89.70
2549;BME280;1284;53.520;10.248;2023-06-24T02:46:50;101670.47;;;18.50;90.14
2549;BME280;1284;53.520;10.248;2023-06-24T02:49:17;101668.13;;;18.52;89.95
2549;BME280;1284;53.520;10.248;2023-06-24T02:51:44;101669.28;;;18.51;89.97
2549;BME280;1284;53.520;10.248;2023-06-24T02:54:10;101667.34;;;18.52;89.59
2549;BME280;1284;53.520;10.248;2023-06-24T02:56:58;101667.34;;;18.52;89.80
2549;BME280;1284;53.520;10.248;2023-06-24T02:59:36;101668.50;;;18.54;90.07
2549;BME280;1284;53.520;10.248;2023-06-24T03:02:06;101668.50;;;18.54;89.85
2549;BME280;1284;53.520;10.248;2023-06-24T03:04:32;101674.38;;;18.56;89.49
2549;BME280;1284;53.520;10.248;2023-06-24T03:06:59;101679.81;;;18.53;89.33
2549;BME280;1284;53.520;10.248;2023-06-24T03:09:33;101685.25;;;18.49;90.00
2549;BME280;1284;53.520;10.248;2023-06-24T03:12:00;101675.94;;;18.50;89.95
2549;BME280;1284;53.520;10.248;2023-06-24T03:14:35;101685.66;;;18.48;89.95
2549;BME280;1284;53.520;10.248;2023-06-24T03:17:02;101670.81;;;18.49;89.49
2549;BME280;1284;53.520;10.248;2023-06-24T03:19:28;101672.00;;;18.48;89.53
2549;BME280;1284;53.520;10.248;2023-06-24T03:21:54;101675.88;;;18.47;89.79
2549;BME280;1284;53.520;10.248;2023-06-24T03:24:19;101671.59;;;18.46;89.95
2549;BME280;1284;53.520;10.248;2023-06-24T03:26:48;101673.53;;;18.45;89.70
2549;BME280;1284;53.520;10.248;2023-06-24T03:29:14;101669.97;;;18.34;89.72
2549;BME280;1284;53.520;10.248;2023-06-24T03:31:48;101676.50;;;18.19;90.89
2549;BME280;1284;53.520;10.248;2023-06-24T03:34:19;101677.75;;;18.32;90.62
2549;BME280;1284;53.520;10.248;2023-06-24T03:36:47;101687.53;;;18.37;90.41
2549;BME280;1284;53.520;10.248;2023-06-24T03:39:14;101683.94;;;18.29;90.67
2549;BME280;1284;53.520;10.248;2023-06-24T03:41:40;101687.13;;;18.35;90.66
2549;BME280;1284;53.520;10.248;2023-06-24T03:44:05;101690.19;;;18.33;90.64
2549;BME280;1284;53.520;10.248;2023-06-24T03:46:33;101692.56;;;18.35;90.91
2549;BME280;1284;53.520;10.248;2023-06-24T03:48:59;101687.13;;;18.35;90.75
2549;BME280;1284;53.520;10.248;2023-06-24T03:51:26;101682.72;;;18.20;92.00
2549;BME280;1284;53.520;10.248;2023-06-24T03:53:52;101688.63;;;18.25;92.03
2549;BME280;1284;53.520;10.248;2023-06-24T03:56:17;101692.91;;;18.26;92.04
2549;BME280;1284;53.520;10.248;2023-06-24T03:58:43;101690.88;;;18.16;92.51
2549;BME280;1284;53.520;10.248;2023-06-24T04:01:09;101695.94;;;18.14;93.02
2549;BME280;1284;53.520;10.248;2023-06-24T04:03:34;101695.22;;;18.24;93.30
2549;BME280;1284;53.520;10.248;2023-06-24T04:06:00;101692.91;;;18.30;93.33
2549;BME280;1284;53.520;10.248;2023-06-24T04:08:26;101691.38;;;18.32;93.48
2549;BME280;1284;53.520;10.248;2023-06-24T04:10:57;101693.03;;;18.44;93.63
2549;BME280;1284;53.520;10.248;2023-06-24T04:13:29;101700.84;;;18.49;93.16
2549;BME280;1284;53.520;10.248;2023-06-24T04:15:55;101692.72;;;18.56;93.73
2549;BME280;1284;53.520;10.248;2023-06-24T04:18:20;101693.50;;;18.60;93.54
2549;BME280;1284;53.520;10.248;2023-06-24T04:20:46;101692.34;;;18.68;93.48
2549;BME280;1284;53.520;10.248;2023-06-24T04:23:12;101692.34;;;18.68;93.82
2549;BME280;1284;53.520;10.248;2023-06-24T04:25:40;101698.25;;;18.77;93.77
2549;BME280;1284;53.520;10.248;2023-06-24T04:28:05;101694.75;;;18.83;93.72
2549;BME280;1284;53.520;10.248;2023-06-24T04:30:32;101699.47;;;18.90;93.70
2549;BME280;1284;53.520;10.248;2023-06-24T04:32:58;101695.19;;;18.92;94.02
2549;BME280;1284;53.520;10.248;2023-06-24T04:35:24;101700.25;;;18.98;94.12
2549;BME280;1284;53.520;10.248;2023-06-24T04:37:50;101698.31;;;18.98;94.46
2549;BME280;1284;53.520;10.248;2023-06-24T04:40:19;101692.47;;;19.03;93.97
2549;BME280;1284;53.520;10.248;2023-06-24T04:42:45;101697.97;;;19.14;94.13
2549;BME280;1284;53.520;10.248;2023-06-24T04:45:11;101698.38;;;19.16;94.43
2549;BME280;1284;53.520;10.248;2023-06-24T04:47:37;101689.00;;;19.20;94.23
2549;BME280;1284;53.520;10.248;2023-06-24T04:50:03;101696.47;;;19.34;93.78
2549;BME280;1284;53.520;10.248;2023-06-24T04:52:29;101689.84;;;19.38;93.52
2549;BME280;1284;53.520;10.248;2023-06-24T04:54:54;101700.00;;;19.41;93.64
2549;BME280;1284;53.520;10.248;2023-06-24T04:57:26;101699.59;;;19.46;93.45
2549;BME280;1284;53.520;10.248;2023-06-24T04:59:52;101698.06;;;19.49;93.59
2549;BME280;1284;53.520;10.248;2023-06-24T05:02:17;101703.13;;;19.54;93.53
2549;BME280;1284;53.520;10.248;2023-06-24T05:04:43;101708.97;;;19.59;93.42
2549;BME280;1284;53.520;10.248;2023-06-24T05:07:09;101706.63;;;19.61;93.05
2549;BME280;1284;53.520;10.248;2023-06-24T05:09:34;101703.13;;;19.71;92.70
2549;BME280;1284;53.520;10.248;2023-06-24T05:12:04;101707.44;;;19.76;92.94
2549;BME280;1284;53.520;10.248;2023-06-24T05:14:29;101709.38;;;19.86;92.55
2549;BME280;1284;53.520;10.248;2023-06-24T05:16:55;101715.97;;;20.34;92.10
2549;BME280;1284;53.520;10.248;2023-06-24T05:19:20;101715.81;;;20.80;90.90
2549;BME280;1284;53.520;10.248;2023-06-24T05:21:49;101724.84;;;21.49;88.79
2549;BME280;1284;53.520;10.248;2023-06-24T05:24:14;101724.25;;;22.20;84.69
2549;BME280;1284;53.520;10.248;2023-06-24T05:26:44;101716.59;;;22.75;82.63
2549;BME280;1284;53.520;10.248;2023-06-24T05:29:10;101718.81;;;22.87;77.53
2549;BME280;1284;53.520;10.248;2023-06-24T05:31:37;101717.84;;;23.27;77.57
2549;BME280;1284;53.520;10.248;2023-06-24T05:34:02;101717.25;;;23.43;76.52
2549;BME280;1284;53.520;10.248;2023-06-24T05:36:28;101703.66;;;23.56;75.17
2549;BME280;1284;53.520;10.248;2023-06-24T05:38:54;101702.56;;;23.53;74.57
2549;BME280;1284;53.520;10.248;2023-06-24T05:41:19;101707.63;;;23.55;73.41
2549;BME280;1284;53.520;10.248;2023-06-24T05:43:45;101720.06;;;23.63;73.52
2549;BME280;1284;53.520;10.248;2023-06-24T05:46:10;101707.41;;;23.69;72.92
2549;BME280;1284;53.520;10.248;2023-06-24T05:48:35;101709.00;;;23.89;72.36
2549;BME280;1284;53.520;10.248;2023-06-24T05:51:01;101699.13;;;24.15;72.14
2549;BME280;1284;53.520;10.248;2023-06-24T05:53:26;101698.22;;;24.22;71.11
2549;BME280;1284;53.520;10.248;2023-06-24T05:55:52;101696.25;;;24.22;70.22
2549;BME280;1284;53.520;10.248;2023-06-24T05:58:17;101700.97;;;24.22;68.88
2549;BME280;1284;53.520;10.248;2023-06-24T06:00:42;101705.94;;;24.30;69.01
2549;BME280;1284;53.520;10.248;2023-06-24T06:03:08;101706.22;;;24.36;69.53
2549;BME280;1284;53.520;10.248;2023-06-24T06:05:34;101709.41;;;24.54;69.24
2549;BME280;1284;53.520;10.248;2023-06-24T06:08:00;101715.19;;;24.59;69.04
2549;BME280;1284;53.520;10.248;2023-06-24T06:10:25;101721.91;;;24.58;69.07
2549;BME280;1284;53.520;10.248;2023-06-24T06:12:51;101733.00;;;24.74;67.00
2549;BME280;1284;53.520;10.248;2023-06-24T06:15:18;101732.72;;;24.88;66.69
2549;BME280;1284;53.520;10.248;2023-06-24T06:17:43;101727.56;;;24.90;65.26
2549;BME280;1284;53.520;10.248;2023-06-24T06:20:09;101744.34;;;25.16;64.73
2549;BME280;1284;53.520;10.248;2023-06-24T06:22:34;101742.63;;;25.22;64.99
2549;BME280;1284;53.520;10.248;2023-06-24T06:25:04;101749.94;;;25.12;64.91
2549;BME280;1284;53.520;10.248;2023-06-24T06:27:30;101749.38;;;25.37;63.54
2549;BME280;1284;53.520;10.248;2023-06-24T06:29:55;101754.63;;;25.31;62.02
2549;BME280;1284;53.520;10.248;2023-06-24T06:32:21;101746.13;;;25.06;63.37
2549;BME280;1284;53.520;10.248;2023-06-24T06:34:46;101752.34;;;25.10;63.68
2549;BME280;1284;53.520;10.248;2023-06-24T06:37:12;101759.66;;;25.17;63.26
2549;BME280;1284;53.520;10.248;2023-06-24T06:39:37;101755.56;;;25.25;64.03
2549;BME280;1284;53.520;10.248;2023-06-24T06:42:05;101742.03;;;25.30;62.62
2549;BME280;1284;53.520;10.248;2023-06-24T06:44:32;101748.59;;;25.36;63.19
2549;BME280;1284;53.520;10.248;2023-06-24T06:46:57;101756.34;;;25.61;61.65
2549;BME280;1284;53.520;10.248;2023-06-24T06:49:22;101752.34;;;25.62;59.54
2549;BME280;1284;53.520;10.248;2023-06-24T06:51:48;101750.19;;;25.69;60.71
2549;BME280;1284;53.520;10.248;2023-06-24T06:54:14;101751.94;;;25.79;60.92
2549;BME280;1284;53.520;10.248;2023-06-24T06:56:42;101751.75;;;25.86;58.72
2549;BME280;1284;53.520;10.248;2023-06-24T06:59:07;101749.06;;;25.99;58.86
2549;BME280;1284;53.520;10.248;2023-06-24T07:01:33;101755.38;;;26.16;57.22
2549;BME280;1284;53.520;10.248;2023-06-24T07:03:58;101754.78;;;26.08;56.15
2549;BME280;1284;53.520;10.248;2023-06-24T07:06:24;101759.09;;;26.09;57.25
2549;BME280;1284;53.520;10.248;2023-06-24T07:08:49;101753.66;;;26.06;57.16
2549;BME280;1284;53.520;10.248;2023-06-24T07:11:15;101754.22;;;26.13;56.97
2549;BME280;1284;53.520;10.248;2023-06-24T07:13:40;101752.66;;;26.28;56.65
2549;BME280;1284;53.520;10.248;2023-06-24T07:16:06;101747.28;;;26.37;56.33
2549;BME280;1284;53.520;10.248;2023-06-24T07:18:31;101758.22;;;26.41;55.02
2549;BME280;1284;53.520;10.248;2023-06-24T07:21:00;101756.59;;;26.43;54.44
2549;BME280;1284;53.520;10.248;2023-06-24T07:23:26;101762.34;;;26.49;54.63
2549;BME280;1284;53.520;10.248;2023-06-24T07:25:52;101756.38;;;26.50;52.79
2549;BME280;1284;53.520;10.248;2023-06-24T07:28:17;101759.09;;;26.66;53.24
2549;BME280;1284;53.520;10.248;2023-06-24T07:30:43;101761.06;;;26.95;54.07
2549;BME280;1284;53.520;10.248;2023-06-24T07:33:09;101769.91;;;26.90;54.95
2549;BME280;1284;53.520;10.248;2023-06-24T07:35:34;101768.13;;;26.83;54.55
2549;BME280;1284;53.520;10.248;2023-06-24T07:38:00;101769.47;;;26.91;54.56
2549;BME280;1284;53.520;10.248;2023-06-24T07:40:26;101768.38;;;27.01;54.79
2549;BME280;1284;53.520;10.248;2023-06-24T07:42:52;101766.47;;;26.86;55.19
2549;BME280;1284;53.520;10.248;2023-06-24T07:45:18;101763.09;;;26.94;53.58
2549;BME280;1284;53.520;10.248;2023-06-24T07:47:43;101765.81;;;26.53;53.72
2549;BME280;1284;53.520;10.248;2023-06-24T07:50:09;101775.47;;;26.61;55.68
2549;BME280;1284;53.520;10.248;2023-06-24T07:52:36;101772.75;;;26.73;55.05
2549;BME280;1284;53.520;10.248;2023-06-24T07:55:02;101773.38;;;26.65;56.35
2549;BME280;1284;53.520;10.248;2023-06-24T07:57:29;101773.09;;;26.75;55.63
2549;BME280;1284;53.520;10.248;2023-06-24T07:59:54;101770.47;;;26.97;54.51
2549;BME280;1284;53.520;10.248;2023-06-24T08:02:20;101778.47;;;27.20;53.26
2549;BME280;1284;53.520;10.248;2023-06-24T08:04:45;101776.06;;;27.22;53.82
2549;BME280;1284;53.520;10.248;2023-06-24T08:07:11;101771.22;;;27.39;52.83
2549;BME280;1284;53.520;10.248;2023-06-24T08:09:37;101768.78;;;27.41;53.06
2549;BME280;1284;53.520;10.248;2023-06-24T08:12:03;101765.69;;;27.39;53.02
2549;BME280;1284;53.520;10.248;2023-06-24T08:17:14;101777.84;;;27.66;52.35
2549;BME280;1284;53.520;10.248;2023-06-24T08:19:39;101769.97;;;27.78;52.85
2549;BME280;1284;53.520;10.248;2023-06-24T08:22:05;101776.38;;;27.87;50.97
2549;BME280;1284;53.520;10.248;2023-06-24T08:24:31;101779.59;;;27.86;51.61
2549;BME280;1284;53.520;10.248;2023-06-24T08:26:56;101777.19;;;27.62;52.17
2549;BME280;1284;53.520;10.248;2023-06-24T08:29:22;101773.22;;;28.44;52.86
2549;BME280;1284;53.520;10.248;2023-06-24T08:31:47;101768.84;;;27.88;48.27
2549;BME280;1284;53.520;10.248;2023-06-24T08:34:13;101761.41;;;28.10;49.98
2549;BME280;1284;53.520;10.248;2023-06-24T08:36:38;101753.84;;;28.66;47.02
2549;BME280;1284;53.520;10.248;2023-06-24T08:39:04;101755.94;;;28.40;47.47
2549;BME280;1284;53.520;10.248;2023-06-24T08:41:29;101756.50;;;28.70;47.43
2549;BME280;1284;53.520;10.248;2023-06-24T08:43:55;101759.16;;;28.17;46.46
2549;BME280;1284;53.520;10.248;2023-06-24T08:46:21;101765.78;;;29.28;48.18
2549;BME280;1284;53.520;10.248;2023-06-24T08:48:55;101763.53;;;30.57;47.02
2549;BME280;1284;53.520;10.248;2023-06-24T08:51:24;101765.88;;;30.85;45.85
2549;BME280;1284;53.520;10.248;2023-06-24T08:53:53;101759.34;;;31.39;45.47
2549;BME280;1284;53.520;10.248;2023-06-24T08:56:19;101756.25;;;31.93;43.10
2549;BME280;1284;53.520;10.248;2023-06-24T08:58:44;101762.50;;;32.27;43.06
2549;BME280;1284;53.520;10.248;2023-06-24T09:01:13;101762.44;;;30.90;43.02
2549;BME280;1284;53.520;10.248;2023-06-24T09:03:39;101757.00;;;31.94;44.12
2549;BME280;1284;53.520;10.248;2023-06-24T09:06:04;101761.53;;;32.82;42.85
2549;BME280;1284;53.520;10.248;2023-06-24T09:08:30;101769.19;;;32.44;41.50
2549;BME280;1284;53.520;10.248;2023-06-24T09:10:56;101762.47;;;32.65;42.54
2549;BME280;1284;53.520;10.248;2023-06-24T09:13:28;101769.91;;;31.82;40.42
2549;BME280;1284;53.520;10.248;2023-06-24T09:15:58;101772.91;;;32.03;42.70
2549;BME280;1284;53.520;10.248;2023-06-24T09:18:31;101772.97;;;32.55;41.56
2549;BME280;1284;53.520;10.248;2023-06-24T09:20:56;101773.53;;;33.32;40.41
2549;BME280;1284;53.520;10.248;2023-06-24T09:23:25;101776.53;;;33.63;39.28
2549;BME280;1284;53.520;10.248;2023-06-24T09:26:01;101773.81;;;34.75;38.28
2549;BME280;1284;53.520;10.248;2023-06-24T09:28:27;101782.47;;;34.51;36.26
2549;BME280;1284;53.520;10.248;2023-06-24T09:31:06;101781.66;;;34.71;35.86
2549;BME280;1284;53.520;10.248;2023-06-24T09:33:32;101765.78;;;33.97;38.16
2549;BME280;1284;53.520;10.248;2023-06-24T09:35:57;101767.41;;;33.83;36.61
2549;BME280;1284;53.520;10.248;2023-06-24T09:38:34;101765.72;;;34.11;37.77
2549;BME280;1284;53.520;10.248;2023-06-24T09:41:03;101769.97;;;34.98;36.52
2549;BME280;1284;53.520;10.248;2023-06-24T09:43:30;101771.72;;;35.64;36.27
2549;BME280;1284;53.520;10.248;2023-06-24T09:45:57;101780.66;;;36.21;35.86
2549;BME280;1284;53.520;10.248;2023-06-24T09:48:24;101761.00;;;36.32;36.20
2549;BME280;1284;53.520;10.248;2023-06-24T09:50:49;101763.41;;;35.43;35.38
2549;BME280;1284;53.520;10.248;2023-06-24T09:53:15;101766.69;;;36.49;34.94
2549;BME280;1284;53.520;10.248;2023-06-24T09:55:42;101762.41;;;36.86;35.12
2549;BME280;1284;53.520;10.248;2023-06-24T09:58:09;101765.63;;;35.71;34.82
2549;BME280;1284;53.520;10.248;2023-06-24T10:00:36;101761.81;;;36.44;35.28
2549;BME280;1284;53.520;10.248;2023-06-24T10:03:02;101752.66;;;36.65;34.76
2549;BME280;1284;53.520;10.248;2023-06-24T10:05:28;101755.91;;;36.36;35.41
2549;BME280;1284;53.520;10.248;2023-06-24T10:07:53;101756.28;;;37.04;33.92
2549;BME280;1284;53.520;10.248;2023-06-24T10:10:19;101755.97;;;37.19;32.88
2549;BME280;1284;53.520;10.248;2023-06-24T10:12:44;101749.63;;;36.91;33.36
2549;BME280;1284;53.520;10.248;2023-06-24T10:15:10;101737.63;;;37.07;33.61
2549;BME280;1284;53.520;10.248;2023-06-24T10:17:36;101736.81;;;37.40;33.99
2549;BME280;1284;53.520;10.248;2023-06-24T10:20:06;101730.28;;;37.78;32.93
2549;BME280;1284;53.520;10.248;2023-06-24T10:22:31;101734.53;;;38.01;33.17
2549;BME280;1284;53.520;10.248;2023-06-24T10:25:02;101733.72;;;38.06;32.71
2549;BME280;1284;53.520;10.248;2023-06-24T10:27:30;101731.94;;;38.03;33.78
2549;BME280;1284;53.520;10.248;2023-06-24T10:30:03;101719.56;;;37.76;32.91
2549;BME280;1284;53.520;10.248;2023-06-24T10:32:40;101727.09;;;37.35;34.37
2549;BME280;1284;53.520;10.248;2023-06-24T10:35:26;101723.84;;;35.89;36.72
2549;BME280;1284;53.520;10.248;2023-06-24T10:37:56;101712.81;;;36.61;35.24
2549;BME280;1284;53.520;10.248;2023-06-24T10:40:44;101720.97;;;37.26;33.86
2549;BME280;1284;53.520;10.248;2023-06-24T10:43:25;101722.22;;;37.25;35.02
2549;BME280;1284;53.520;10.248;2023-06-24T10:45:53;101705.69;;;36.99;34.83
2549;BME280;1284;53.520;10.248;2023-06-24T10:48:18;101707.75;;;36.87;37.00
2549;BME280;1284;53.520;10.248;2023-06-24T10:50:45;101701.34;;;36.43;38.50
2549;BME280;1284;53.520;10.248;2023-06-24T10:55:57;101705.41;;;36.69;36.71
2549;BME280;1284;53.520;10.248;2023-06-24T10:58:24;101700.31;;;36.90;35.22
2549;BME280;1284;53.520;10.248;2023-06-24T11:00:49;101698.19;;;36.18;36.63
2549;BME280;1284;53.520;10.248;2023-06-24T11:03:16;101692.84;;;36.32;36.43
2549;BME280;1284;53.520;10.248;2023-06-24T11:05:44;101693.00;;;35.89;34.65
2549;BME280;1284;53.520;10.248;2023-06-24T11:08:10;101695.47;;;34.86;37.47
2549;BME280;1284;53.520;10.248;2023-06-24T11:10:48;101687.63;;;34.59;37.80
2549;BME280;1284;53.520;10.248;2023-06-24T11:13:14;101682.94;;;35.13;37.19
2549;BME280;1284;53.520;10.248;2023-06-24T11:15:40;101684.63;;;34.68;37.34
2549;BME280;1284;53.520;10.248;2023-06-24T11:18:09;101683.63;;;35.98;37.31
2549;BME280;1284;53.520;10.248;2023-06-24T11:20:38;101682.91;;;35.50;38.04
2549;BME280;1284;53.520;10.248;2023-06-24T11:23:07;101677.56;;;35.46;37.37
2549;BME280;1284;53.520;10.248;2023-06-24T11:25:39;101681.81;;;35.41;36.56
2549;BME280;1284;53.520;10.248;2023-06-24T11:28:05;101676.16;;;35.30;37.17
2549;BME280;1284;53.520;10.248;2023-06-24T11:30:34;101679.28;;;35.43;37.50
2549;BME280;1284;53.520;10.248;2023-06-24T11:32:59;101675.50;;;35.04;36.88
2549;BME280;1284;53.520;10.248;2023-06-24T11:35:25;101668.13;;;34.19;38.99
2549;BME280;1284;53.520;10.248;2023-06-24T11:37:50;101668.53;;;34.06;37.45
2549;BME280;1284;53.520;10.248;2023-06-24T11:40:17;101670.31;;;34.92;38.96
2549;BME280;1284;53.520;10.248;2023-06-24T11:45:13;101665.00;;;36.06;35.60
2549;BME280;1284;53.520;10.248;2023-06-24T11:47:40;101669.63;;;36.81;35.76
2549;BME280;1284;53.520;10.248;2023-06-24T11:50:07;101672.34;;;37.36;34.44
2549;BME280;1284;53.520;10.248;2023-06-24T11:52:42;101664.38;;;37.57;35.57
2549;BME280;1284;53.520;10.248;2023-06-24T11:55:12;101658.03;;;37.45;33.69
2549;BME280;1284;53.520;10.248;2023-06-24T12:00:22;101658.34;;;35.39;34.72
2549;BME280;1284;53.520;10.248;2023-06-24T12:02:50;101648.84;;;35.20;37.00
2549;BME280;1284;53.520;10.248;2023-06-24T12:05:20;101639.78;;;34.06;36.87
2549;BME280;1284;53.520;10.248;2023-06-24T12:07:58;101641.16;;;33.50;38.28
2549;BME280;1284;53.520;10.248;2023-06-24T12:10:24;101642.16;;;33.93;37.80
2549;BME280;1284;53.520;10.248;2023-06-24T12:12:50;101632.50;;;30.46;41.92
2549;BME280;1284;53.520;10.248;2023-06-24T12:15:15;101625.69;;;30.56;41.92
2549;BME280;1284;53.520;10.248;2023-06-24T12:17:41;101620.53;;;29.85;43.41
2549;BME280;1284;53.520;10.248;2023-06-24T12:20:07;101615.31;;;29.11;44.60
2549;BME280;1284;53.520;10.248;2023-06-24T12:22:33;101612.50;;;29.42;46.89
2549;BME280;1284;53.520;10.248;2023-06-24T12:24:58;101628.72;;;29.89;43.51
2549;BME280;1284;53.520;10.248;2023-06-24T12:27:23;101622.97;;;30.19;43.80
2549;BME280;1284;53.520;10.248;2023-06-24T12:29:49;101616.81;;;30.06;44.63
2549;BME280;1284;53.520;10.248;2023-06-24T12:32:14;101630.31;;;30.59;44.71
2549;BME280;1284;53.520;10.248;2023-06-24T12:34:40;101619.09;;;30.77;43.84
2549;BME280;1284;53.520;10.248;2023-06-24T12:37:05;101627.16;;;31.07;43.37
2549;BME280;1284;53.520;10.248;2023-06-24T12:39:31;101624.56;;;29.93;45.33
2549;BME280;1284;53.520;10.248;2023-06-24T12:41:56;101628.50;;;29.29;45.46
2549;BME280;1284;53.520;10.248;2023-06-24T12:44:21;101616.38;;;29.05;46.18
2549;BME280;1284;53.520;10.248;2023-06-24T12:46:47;101621.47;;;29.06;47.95
2549;BME280;1284;53.520;10.248;2023-06-24T12:49:13;101612.22;;;29.76;47.43
2549;BME280;1284;53.520;10.248;2023-06-24T12:51:38;101613.88;;;30.10;46.54
2549;BME280;1284;53.520;10.248;2023-06-24T12:54:03;101617.13;;;29.81;46.32
2549;BME280;1284;53.520;10.248;2023-06-24T12:56:29;101610.38;;;30.60;47.32
2549;BME280;1284;53.520;10.248;2023-06-24T12:58:54;101606.34;;;29.92;44.82
2549;BME280;1284;53.520;10.248;2023-06-24T13:01:20;101601.84;;;30.04;46.50
2549;BME280;1284;53.520;10.248;2023-06-24T13:03:45;101601.19;;;30.18;45.30
2549;BME280;1284;53.520;10.248;2023-06-24T13:06:11;101593.72;;;28.97;46.58
2549;BME280;1284;53.520;10.248;2023-06-24T13:08:36;101602.56;;;29.14;47.50
2549;BME280;1284;53.520;10.248;2023-06-24T13:11:01;101605.91;;;29.09;47.40
2549;BME280;1284;53.520;10.248;2023-06-24T13:13:27;101606.94;;;29.60;49.01
2549;BME280;1284;53.520;10.248;2023-06-24T13:15:52;101604.22;;;30.47;48.64